Terminal Aerodrome Forecast
Issued by NWS Wilmington, OH

Home | Current Version | Previous Version | Text Only | Print | Product List | Glossary On
Versions: 1 2 3 4 5 6 7 8 9 10 11 12 13 14 15 16 17
000
FTUS41 KILN 210637 AAA
TAFDAY
TAF AMD
KDAY 210637Z 2107/2206 16005KT 1/4SM -DZ FG OVC003
     FM210900 20007KT 3SM BR SCT006 OVC015
      TEMPO 2110/2112 OVC004
     FM211500 20010KT 5SM BR VCSH OVC006
     FM212300 19008KT 5SM BR OVC008
      TEMPO 2200/2204 1SM -RA BR OVC005=

USA.gov is the U.S. government's official web portal to all federal, state and local government web resources and services.